sensor_id;sensor_type;location;lat;lon;timestamp;P1;durP1;ratioP1;P2;durP2;ratioP2
27495;SDS011;14929;51.336;9.416;2023-07-16T00:02:03;2.75;;;2.55;;
27495;SDS011;14929;51.336;9.416;2023-07-16T00:04:32;2.42;;;2.22;;
27495;SDS011;14929;51.336;9.416;2023-07-16T00:06:59;1.52;;;1.48;;
27495;SDS011;14929;51.336;9.416;2023-07-16T00:09:28;2.00;;;1.90;;
27495;SDS011;14929;51.336;9.416;2023-07-16T00:11:56;2.35;;;2.15;;
27495;SDS011;14929;51.336;9.416;2023-07-16T00:14:24;4.15;;;2.22;;
27495;SDS011;14929;51.336;9.416;2023-07-16T00:16:51;2.70;;;2.30;;
27495;SDS011;14929;51.336;9.416;2023-07-16T00:19:19;3.38;;;2.38;;
27495;SDS011;14929;51.336;9.416;2023-07-16T00:21:46;4.47;;;2.33;;
27495;SDS011;14929;51.336;9.416;2023-07-16T00:24:14;2.17;;;2.08;;
27495;SDS011;14929;51.336;9.416;2023-07-16T00:26:42;2.20;;;2.00;;
27495;SDS011;14929;51.336;9.416;2023-07-16T00:29:10;3.05;;;2.42;;
27495;SDS011;14929;51.336;9.416;2023-07-16T00:31:37;2.65;;;2.20;;
27495;SDS011;14929;51.336;9.416;2023-07-16T00:34:05;1.95;;;1.85;;
27495;SDS011;14929;51.336;9.416;2023-07-16T00:36:32;2.17;;;2.03;;
27495;SDS011;14929;51.336;9.416;2023-07-16T00:38:59;2.42;;;2.22;;
27495;SDS011;14929;51.336;9.416;2023-07-16T00:41:27;2.83;;;2.30;;
27495;SDS011;14929;51.336;9.416;2023-07-16T00:43:56;2.17;;;2.00;;
27495;SDS011;14929;51.336;9.416;2023-07-16T00:46:23;2.45;;;2.25;;
27495;SDS011;14929;51.336;9.416;2023-07-16T00:48:51;2.33;;;1.98;;
27495;SDS011;14929;51.336;9.416;2023-07-16T00:51:19;1.85;;;1.75;;
27495;SDS011;14929;51.336;9.416;2023-07-16T00:53:48;2.15;;;1.95;;
27495;SDS011;14929;51.336;9.416;2023-07-16T00:56:16;2.33;;;2.13;;
27495;SDS011;14929;51.336;9.416;2023-07-16T00:58:44;1.65;;;1.55;;
27495;SDS011;14929;51.336;9.416;2023-07-16T01:01:13;2.05;;;1.80;;
27495;SDS011;14929;51.336;9.416;2023-07-16T01:03:40;1.77;;;1.67;;
27495;SDS011;14929;51.336;9.416;2023-07-16T01:06:10;1.60;;;1.50;;
27495;SDS011;14929;51.336;9.416;2023-07-16T01:08:41;2.38;;;2.17;;
27495;SDS011;14929;51.336;9.416;2023-07-16T01:11:11;2.60;;;1.70;;
27495;SDS011;14929;51.336;9.416;2023-07-16T01:13:39;2.05;;;1.85;;
27495;SDS011;14929;51.336;9.416;2023-07-16T01:16:18;1.17;;;1.17;;
27495;SDS011;14929;51.336;9.416;2023-07-16T01:18:46;1.98;;;1.63;;
27495;SDS011;14929;51.336;9.416;2023-07-16T01:21:14;2.03;;;1.80;;
27495;SDS011;14929;51.336;9.416;2023-07-16T01:23:49;2.55;;;2.35;;
27495;SDS011;14929;51.336;9.416;2023-07-16T01:26:32;1.83;;;1.67;;
27495;SDS011;14929;51.336;9.416;2023-07-16T01:29:18;1.58;;;1.48;;
27495;SDS011;14929;51.336;9.416;2023-07-16T01:31:55;2.15;;;2.05;;
27495;SDS011;14929;51.336;9.416;2023-07-16T01:34:23;1.63;;;1.52;;
27495;SDS011;14929;51.336;9.416;2023-07-16T01:36:52;1.50;;;1.40;;
27495;SDS011;14929;51.336;9.416;2023-07-16T01:39:19;1.67;;;1.58;;
27495;SDS011;14929;51.336;9.416;2023-07-16T01:41:47;1.95;;;1.65;;
27495;SDS011;14929;51.336;9.416;2023-07-16T01:44:14;1.67;;;1.58;;
27495;SDS011;14929;51.336;9.416;2023-07-16T01:46:43;2.10;;;1.90;;
27495;SDS011;14929;51.336;9.416;2023-07-16T01:49:10;1.40;;;1.30;;
27495;SDS011;14929;51.336;9.416;2023-07-16T01:51:38;1.42;;;1.33;;
27495;SDS011;14929;51.336;9.416;2023-07-16T01:54:06;1.70;;;1.60;;
27495;SDS011;14929;51.336;9.416;2023-07-16T01:56:33;1.60;;;1.35;;
27495;SDS011;14929;51.336;9.416;2023-07-16T01:59:01;2.10;;;1.80;;
27495;SDS011;14929;51.336;9.416;2023-07-16T02:01:28;1.40;;;1.30;;
27495;SDS011;14929;51.336;9.416;2023-07-16T02:03:57;1.50;;;1.40;;
27495;SDS011;14929;51.336;9.416;2023-07-16T02:06:24;2.03;;;1.77;;
27495;SDS011;14929;51.336;9.416;2023-07-16T02:08:52;1.98;;;1.85;;
27495;SDS011;14929;51.336;9.416;2023-07-16T02:11:19;2.15;;;1.48;;
27495;SDS011;14929;51.336;9.416;2023-07-16T02:13:47;1.55;;;1.45;;
27495;SDS011;14929;51.336;9.416;2023-07-16T02:16:15;1.92;;;1.77;;
27495;SDS011;14929;51.336;9.416;2023-07-16T02:18:43;1.60;;;1.50;;
27495;SDS011;14929;51.336;9.416;2023-07-16T02:21:11;1.48;;;1.38;;
27495;SDS011;14929;51.336;9.416;2023-07-16T02:23:39;1.25;;;1.20;;
27495;SDS011;14929;51.336;9.416;2023-07-16T02:26:06;1.27;;;1.27;;
27495;SDS011;14929;51.336;9.416;2023-07-16T02:28:34;1.50;;;1.40;;
27495;SDS011;14929;51.336;9.416;2023-07-16T02:31:01;1.70;;;1.60;;
27495;SDS011;14929;51.336;9.416;2023-07-16T02:33:29;1.27;;;1.25;;
27495;SDS011;14929;51.336;9.416;2023-07-16T02:35:56;4.28;;;1.45;;
27495;SDS011;14929;51.336;9.416;2023-07-16T02:38:25;1.70;;;1.60;;
27495;SDS011;14929;51.336;9.416;2023-07-16T02:40:53;1.50;;;1.40;;
27495;SDS011;14929;51.336;9.416;2023-07-16T02:43:20;1.67;;;1.23;;
27495;SDS011;14929;51.336;9.416;2023-07-16T02:45:47;1.20;;;1.20;;
27495;SDS011;14929;51.336;9.416;2023-07-16T02:48:15;1.38;;;1.27;;
27495;SDS011;14929;51.336;9.416;2023-07-16T02:50:42;1.00;;;1.00;;
27495;SDS011;14929;51.336;9.416;2023-07-16T02:53:10;1.52;;;1.30;;
27495;SDS011;14929;51.336;9.416;2023-07-16T02:55:39;2.15;;;1.60;;
27495;SDS011;14929;51.336;9.416;2023-07-16T02:58:06;1.60;;;1.50;;
27495;SDS011;14929;51.336;9.416;2023-07-16T03:00:33;1.30;;;1.20;;
27495;SDS011;14929;51.336;9.416;2023-07-16T03:03:01;1.10;;;1.00;;
27495;SDS011;14929;51.336;9.416;2023-07-16T03:05:28;1.63;;;1.33;;
27495;SDS011;14929;51.336;9.416;2023-07-16T03:07:56;2.45;;;1.67;;
27495;SDS011;14929;51.336;9.416;2023-07-16T03:10:24;2.03;;;1.05;;
27495;SDS011;14929;51.336;9.416;2023-07-16T03:12:53;1.70;;;1.60;;
27495;SDS011;14929;51.336;9.416;2023-07-16T03:15:20;1.88;;;1.48;;
27495;SDS011;14929;51.336;9.416;2023-07-16T03:17:48;1.17;;;1.13;;
27495;SDS011;14929;51.336;9.416;2023-07-16T03:20:16;1.10;;;1.10;;
27495;SDS011;14929;51.336;9.416;2023-07-16T03:22:44;1.10;;;1.05;;
27495;SDS011;14929;51.336;9.416;2023-07-16T03:25:11;1.20;;;1.10;;
27495;SDS011;14929;51.336;9.416;2023-07-16T03:27:39;0.90;;;0.90;;
27495;SDS011;14929;51.336;9.416;2023-07-16T03:30:09;1.30;;;1.23;;
27495;SDS011;14929;51.336;9.416;2023-07-16T03:32:37;1.25;;;1.15;;
27495;SDS011;14929;51.336;9.416;2023-07-16T03:35:05;1.58;;;1.48;;
27495;SDS011;14929;51.336;9.416;2023-07-16T03:37:33;1.38;;;1.23;;
27495;SDS011;14929;51.336;9.416;2023-07-16T03:40:11;1.52;;;1.38;;
27495;SDS011;14929;51.336;9.416;2023-07-16T03:42:40;1.17;;;1.13;;
27495;SDS011;14929;51.336;9.416;2023-07-16T03:45:10;1.73;;;1.10;;
27495;SDS011;14929;51.336;9.416;2023-07-16T03:47:39;4.85;;;2.53;;
27495;SDS011;14929;51.336;9.416;2023-07-16T03:50:07;1.13;;;1.02;;
27495;SDS011;14929;51.336;9.416;2023-07-16T03:52:35;1.10;;;1.10;;
27495;SDS011;14929;51.336;9.416;2023-07-16T03:55:03;1.25;;;1.17;;
27495;SDS011;14929;51.336;9.416;2023-07-16T03:57:37;1.15;;;1.10;;
27495;SDS011;14929;51.336;9.416;2023-07-16T04:00:06;1.45;;;1.30;;
27495;SDS011;14929;51.336;9.416;2023-07-16T04:02:36;1.35;;;0.93;;
27495;SDS011;14929;51.336;9.416;2023-07-16T04:05:04;4.28;;;1.52;;
27495;SDS011;14929;51.336;9.416;2023-07-16T04:07:33;1.50;;;1.10;;
27495;SDS011;14929;51.336;9.416;2023-07-16T04:10:01;1.20;;;1.10;;
27495;SDS011;14929;51.336;9.416;2023-07-16T04:12:29;1.77;;;1.15;;
27495;SDS011;14929;51.336;9.416;2023-07-16T04:14:57;3.78;;;1.30;;
27495;SDS011;14929;51.336;9.416;2023-07-16T04:17:26;2.00;;;1.45;;
27495;SDS011;14929;51.336;9.416;2023-07-16T04:19:55;1.20;;;1.10;;
27495;SDS011;14929;51.336;9.416;2023-07-16T04:22:23;1.20;;;1.10;;
27495;SDS011;14929;51.336;9.416;2023-07-16T04:24:51;0.90;;;0.90;;
27495;SDS011;14929;51.336;9.416;2023-07-16T04:27:18;0.98;;;0.80;;
27495;SDS011;14929;51.336;9.416;2023-07-16T04:29:46;1.00;;;1.00;;
27495;SDS011;14929;51.336;9.416;2023-07-16T04:32:14;1.10;;;1.10;;
27495;SDS011;14929;51.336;9.416;2023-07-16T04:34:41;2.42;;;2.10;;
27495;SDS011;14929;51.336;9.416;2023-07-16T04:37:10;1.25;;;1.17;;
27495;SDS011;14929;51.336;9.416;2023-07-16T04:39:38;1.58;;;1.48;;
27495;SDS011;14929;51.336;9.416;2023-07-16T04:42:06;0.80;;;0.80;;
27495;SDS011;14929;51.336;9.416;2023-07-16T04:44:34;1.17;;;0.95;;
27495;SDS011;14929;51.336;9.416;2023-07-16T04:47:02;1.38;;;1.27;;
27495;SDS011;14929;51.336;9.416;2023-07-16T04:49:31;1.25;;;1.20;;
27495;SDS011;14929;51.336;9.416;2023-07-16T04:52:01;1.42;;;1.10;;
27495;SDS011;14929;51.336;9.416;2023-07-16T04:54:30;1.25;;;1.15;;
27495;SDS011;14929;51.336;9.416;2023-07-16T04:57:03;1.30;;;1.20;;
27495;SDS011;14929;51.336;9.416;2023-07-16T04:59:32;1.13;;;1.02;;
27495;SDS011;14929;51.336;9.416;2023-07-16T05:02:01;1.00;;;1.00;;
27495;SDS011;14929;51.336;9.416;2023-07-16T05:04:31;1.27;;;0.95;;
27495;SDS011;14929;51.336;9.416;2023-07-16T05:06:58;1.05;;;1.05;;
27495;SDS011;14929;51.336;9.416;2023-07-16T05:09:27;1.27;;;1.13;;
27495;SDS011;14929;51.336;9.416;2023-07-16T05:11:56;1.98;;;1.25;;
27495;SDS011;14929;51.336;9.416;2023-07-16T05:14:25;1.63;;;1.40;;
27495;SDS011;14929;51.336;9.416;2023-07-16T05:16:54;1.95;;;1.23;;
27495;SDS011;14929;51.336;9.416;2023-07-16T05:19:22;1.20;;;1.20;;
27495;SDS011;14929;51.336;9.416;2023-07-16T05:21:49;1.85;;;1.33;;
27495;SDS011;14929;51.336;9.416;2023-07-16T05:24:17;2.30;;;1.75;;
27495;SDS011;14929;51.336;9.416;2023-07-16T05:26:46;1.40;;;1.05;;
27495;SDS011;14929;51.336;9.416;2023-07-16T05:29:15;1.27;;;1.20;;
27495;SDS011;14929;51.336;9.416;2023-07-16T05:31:43;1.38;;;1.20;;
27495;SDS011;14929;51.336;9.416;2023-07-16T05:34:11;1.48;;;1.38;;
27495;SDS011;14929;51.336;9.416;2023-07-16T05:36:40;1.45;;;1.35;;
27495;SDS011;14929;51.336;9.416;2023-07-16T05:39:09;1.27;;;1.10;;
27495;SDS011;14929;51.336;9.416;2023-07-16T05:41:38;2.15;;;1.10;;
27495;SDS011;14929;51.336;9.416;2023-07-16T05:44:07;1.00;;;1.00;;
27495;SDS011;14929;51.336;9.416;2023-07-16T05:46:35;2.15;;;1.63;;
27495;SDS011;14929;51.336;9.416;2023-07-16T05:49:03;2.03;;;1.50;;
27495;SDS011;14929;51.336;9.416;2023-07-16T05:51:30;1.83;;;1.50;;
27495;SDS011;14929;51.336;9.416;2023-07-16T05:53:58;2.10;;;1.27;;
27495;SDS011;14929;51.336;9.416;2023-07-16T05:56:26;2.10;;;1.10;;
27495;SDS011;14929;51.336;9.416;2023-07-16T05:58:53;1.92;;;1.50;;
27495;SDS011;14929;51.336;9.416;2023-07-16T06:01:22;4.15;;;1.42;;
27495;SDS011;14929;51.336;9.416;2023-07-16T06:03:50;1.45;;;1.23;;
27495;SDS011;14929;51.336;9.416;2023-07-16T06:06:18;2.20;;;1.35;;
27495;SDS011;14929;51.336;9.416;2023-07-16T06:08:46;2.28;;;1.20;;
27495;SDS011;14929;51.336;9.416;2023-07-16T06:11:14;1.58;;;1.38;;
27495;SDS011;14929;51.336;9.416;2023-07-16T06:13:42;1.88;;;1.73;;
27495;SDS011;14929;51.336;9.416;2023-07-16T06:16:09;3.13;;;1.35;;
27495;SDS011;14929;51.336;9.416;2023-07-16T06:18:39;1.60;;;1.50;;
27495;SDS011;14929;51.336;9.416;2023-07-16T06:21:06;1.90;;;1.30;;
27495;SDS011;14929;51.336;9.416;2023-07-16T06:23:34;1.50;;;1.40;;
27495;SDS011;14929;51.336;9.416;2023-07-16T06:26:02;2.35;;;1.70;;
27495;SDS011;14929;51.336;9.416;2023-07-16T06:28:30;2.63;;;1.55;;
27495;SDS011;14929;51.336;9.416;2023-07-16T06:30:58;1.40;;;1.30;;
27495;SDS011;14929;51.336;9.416;2023-07-16T06:33:25;2.72;;;1.70;;
27495;SDS011;14929;51.336;9.416;2023-07-16T06:35:55;1.98;;;1.45;;
27495;SDS011;14929;51.336;9.416;2023-07-16T06:38:22;1.50;;;1.40;;
27495;SDS011;14929;51.336;9.416;2023-07-16T06:40:50;1.70;;;1.20;;
27495;SDS011;14929;51.336;9.416;2023-07-16T06:43:18;3.17;;;1.65;;
27495;SDS011;14929;51.336;9.416;2023-07-16T06:45:48;1.52;;;1.42;;
27495;SDS011;14929;51.336;9.416;2023-07-16T06:48:16;2.75;;;1.65;;
27495;SDS011;14929;51.336;9.416;2023-07-16T06:50:44;3.20;;;1.60;;
27495;SDS011;14929;51.336;9.416;2023-07-16T06:53:13;1.33;;;1.20;;
27495;SDS011;14929;51.336;9.416;2023-07-16T06:55:42;1.92;;;1.40;;
27495;SDS011;14929;51.336;9.416;2023-07-16T06:58:10;2.75;;;1.85;;
27495;SDS011;14929;51.336;9.416;2023-07-16T07:00:40;3.10;;;1.40;;
27495;SDS011;14929;51.336;9.416;2023-07-16T07:03:07;1.80;;;1.65;;
27495;SDS011;14929;51.336;9.416;2023-07-16T07:05:35;3.90;;;1.52;;
27495;SDS011;14929;51.336;9.416;2023-07-16T07:08:06;1.90;;;1.40;;
27495;SDS011;14929;51.336;9.416;2023-07-16T07:10:35;1.90;;;1.70;;
27495;SDS011;14929;51.336;9.416;2023-07-16T07:13:04;3.13;;;1.73;;
27495;SDS011;14929;51.336;9.416;2023-07-16T07:15:32;1.85;;;1.75;;
27495;SDS011;14929;51.336;9.416;2023-07-16T07:18:00;1.98;;;1.20;;
27495;SDS011;14929;51.336;9.416;2023-07-16T07:20:28;2.47;;;1.67;;
27495;SDS011;14929;51.336;9.416;2023-07-16T07:22:55;2.55;;;2.03;;
27495;SDS011;14929;51.336;9.416;2023-07-16T07:25:27;1.45;;;1.33;;
27495;SDS011;14929;51.336;9.416;2023-07-16T07:27:56;2.08;;;1.50;;
27495;SDS011;14929;51.336;9.416;2023-07-16T07:30:24;1.58;;;1.42;;
27495;SDS011;14929;51.336;9.416;2023-07-16T07:32:52;1.70;;;1.35;;
27495;SDS011;14929;51.336;9.416;2023-07-16T07:35:19;2.25;;;1.70;;
27495;SDS011;14929;51.336;9.416;2023-07-16T07:37:47;2.78;;;2.10;;
27495;SDS011;14929;51.336;9.416;2023-07-16T07:40:14;1.40;;;1.10;;
27495;SDS011;14929;51.336;9.416;2023-07-16T07:42:42;1.60;;;1.50;;
27495;SDS011;14929;51.336;9.416;2023-07-16T07:45:11;1.33;;;1.23;;
27495;SDS011;14929;51.336;9.416;2023-07-16T07:47:38;1.35;;;1.25;;
27495;SDS011;14929;51.336;9.416;2023-07-16T07:50:06;1.83;;;1.52;;
27495;SDS011;14929;51.336;9.416;2023-07-16T07:52:34;2.65;;;2.20;;
27495;SDS011;14929;51.336;9.416;2023-07-16T07:55:02;1.60;;;1.40;;
27495;SDS011;14929;51.336;9.416;2023-07-16T07:57:30;1.60;;;1.50;;
27495;SDS011;14929;51.336;9.416;2023-07-16T07:59:58;2.05;;;1.60;;
27495;SDS011;14929;51.336;9.416;2023-07-16T08:02:26;1.10;;;1.10;;
27495;SDS011;14929;51.336;9.416;2023-07-16T08:04:54;1.63;;;1.40;;
27495;SDS011;14929;51.336;9.416;2023-07-16T08:07:22;1.83;;;1.52;;
27495;SDS011;14929;51.336;9.416;2023-07-16T08:09:51;1.63;;;1.52;;
27495;SDS011;14929;51.336;9.416;2023-07-16T08:12:18;2.22;;;1.90;;
27495;SDS011;14929;51.336;9.416;2023-07-16T08:14:45;2.05;;;1.83;;
27495;SDS011;14929;51.336;9.416;2023-07-16T08:17:14;2.38;;;1.40;;
27495;SDS011;14929;51.336;9.416;2023-07-16T08:19:43;1.98;;;1.40;;
27495;SDS011;14929;51.336;9.416;2023-07-16T08:22:10;1.35;;;1.25;;
27495;SDS011;14929;51.336;9.416;2023-07-16T08:24:38;1.60;;;1.50;;
27495;SDS011;14929;51.336;9.416;2023-07-16T08:27:05;1.50;;;1.40;;
27495;SDS011;14929;51.336;9.416;2023-07-16T08:29:34;2.55;;;1.75;;
27495;SDS011;14929;51.336;9.416;2023-07-16T08:32:02;1.70;;;1.60;;
27495;SDS011;14929;51.336;9.416;2023-07-16T08:34:30;2.17;;;1.98;;
27495;SDS011;14929;51.336;9.416;2023-07-16T08:36:59;1.65;;;1.55;;
27495;SDS011;14929;51.336;9.416;2023-07-16T08:39:27;1.95;;;1.85;;
27495;SDS011;14929;51.336;9.416;2023-07-16T08:41:54;2.25;;;1.67;;
27495;SDS011;14929;51.336;9.416;2023-07-16T08:44:22;2.60;;;1.98;;
27495;SDS011;14929;51.336;9.416;2023-07-16T08:46:50;2.53;;;1.88;;
27495;SDS011;14929;51.336;9.416;2023-07-16T08:49:17;2.25;;;1.88;;
27495;SDS011;14929;51.336;9.416;2023-07-16T08:51:45;2.00;;;1.88;;
27495;SDS011;14929;51.336;9.416;2023-07-16T08:54:16;1.60;;;1.50;;
27495;SDS011;14929;51.336;9.416;2023-07-16T08:56:44;1.80;;;1.70;;
27495;SDS011;14929;51.336;9.416;2023-07-16T08:59:13;1.65;;;1.45;;
27495;SDS011;14929;51.336;9.416;2023-07-16T09:01:41;1.67;;;1.58;;
27495;SDS011;14929;51.336;9.416;2023-07-16T09:04:09;2.35;;;1.80;;
27495;SDS011;14929;51.336;9.416;2023-07-16T09:06:36;2.45;;;1.95;;
27495;SDS011;14929;51.336;9.416;2023-07-16T09:09:04;1.73;;;1.63;;
27495;SDS011;14929;51.336;9.416;2023-07-16T09:11:34;2.85;;;1.83;;
27495;SDS011;14929;51.336;9.416;2023-07-16T09:14:01;2.25;;;1.65;;
27495;SDS011;14929;51.336;9.416;2023-07-16T09:16:32;2.85;;;2.10;;
27495;SDS011;14929;51.336;9.416;2023-07-16T09:19:05;3.58;;;1.85;;
27495;SDS011;14929;51.336;9.416;2023-07-16T09:21:38;1.77;;;1.67;;
27495;SDS011;14929;51.336;9.416;2023-07-16T09:24:06;2.45;;;1.40;;
27495;SDS011;14929;51.336;9.416;2023-07-16T09:26:37;2.63;;;1.83;;
27495;SDS011;14929;51.336;9.416;2023-07-16T09:29:05;1.77;;;1.67;;
27495;SDS011;14929;51.336;9.416;2023-07-16T09:31:33;1.80;;;1.70;;
27495;SDS011;14929;51.336;9.416;2023-07-16T09:34:00;2.17;;;1.98;;
27495;SDS011;14929;51.336;9.416;2023-07-16T09:36:28;1.92;;;1.83;;
27495;SDS011;14929;51.336;9.416;2023-07-16T09:38:55;3.30;;;1.60;;
27495;SDS011;14929;51.336;9.416;2023-07-16T09:41:24;1.77;;;1.67;;
27495;SDS011;14929;51.336;9.416;2023-07-16T09:43:53;3.17;;;1.83;;
27495;SDS011;14929;51.336;9.416;2023-07-16T09:46:21;1.70;;;1.60;;
27495;SDS011;14929;51.336;9.416;2023-07-16T09:48:48;1.60;;;1.50;;
27495;SDS011;14929;51.336;9.416;2023-07-16T09:51:16;2.33;;;2.13;;
27495;SDS011;14929;51.336;9.416;2023-07-16T09:53:44;2.08;;;1.88;;
27495;SDS011;14929;51.336;9.416;2023-07-16T09:56:12;3.80;;;2.00;;
27495;SDS011;14929;51.336;9.416;2023-07-16T09:58:40;2.20;;;1.92;;
27495;SDS011;14929;51.336;9.416;2023-07-16T10:01:09;1.90;;;1.80;;
27495;SDS011;14929;51.336;9.416;2023-07-16T10:03:37;2.10;;;1.95;;
27495;SDS011;14929;51.336;9.416;2023-07-16T10:06:15;2.00;;;1.90;;
27495;SDS011;14929;51.336;9.416;2023-07-16T10:08:48;2.38;;;1.80;;
27495;SDS011;14929;51.336;9.416;2023-07-16T10:11:16;1.67;;;1.58;;
27495;SDS011;14929;51.336;9.416;2023-07-16T10:13:48;1.77;;;1.65;;
27495;SDS011;14929;51.336;9.416;2023-07-16T10:16:21;2.03;;;1.92;;
27495;SDS011;14929;51.336;9.416;2023-07-16T10:18:52;2.53;;;1.90;;
27495;SDS011;14929;51.336;9.416;2023-07-16T10:21:22;1.90;;;1.80;;
27495;SDS011;14929;51.336;9.416;2023-07-16T10:23:56;1.77;;;1.67;;
27495;SDS011;14929;51.336;9.416;2023-07-16T10:26:26;2.30;;;2.10;;
27495;SDS011;14929;51.336;9.416;2023-07-16T10:28:54;3.40;;;1.85;;
27495;SDS011;14929;51.336;9.416;2023-07-16T10:31:24;3.10;;;2.03;;
27495;SDS011;14929;51.336;9.416;2023-07-16T10:33:58;2.40;;;2.20;;
27495;SDS011;14929;51.336;9.416;2023-07-16T10:36:27;2.22;;;2.00;;
27495;SDS011;14929;51.336;9.416;2023-07-16T10:38:54;2.38;;;2.17;;
27495;SDS011;14929;51.336;9.416;2023-07-16T10:41:27;3.25;;;2.75;;
27495;SDS011;14929;51.336;9.416;2023-07-16T10:43:56;2.17;;;2.03;;
27495;SDS011;14929;51.336;9.416;2023-07-16T10:46:25;2.33;;;2.08;;
27495;SDS011;14929;51.336;9.416;2023-07-16T10:48:53;2.05;;;1.85;;
27495;SDS011;14929;51.336;9.416;2023-07-16T10:51:24;2.10;;;2.00;;
27495;SDS011;14929;51.336;9.416;2023-07-16T10:53:54;2.00;;;1.90;;
27495;SDS011;14929;51.336;9.416;2023-07-16T10:56:22;2.63;;;2.42;;
27495;SDS011;14929;51.336;9.416;2023-07-16T10:58:50;2.30;;;2.10;;
27495;SDS011;14929;51.336;9.416;2023-07-16T11:01:17;1.73;;;1.63;;
27495;SDS011;14929;51.336;9.416;2023-07-16T11:03:47;2.60;;;1.98;;
27495;SDS011;14929;51.336;9.416;2023-07-16T11:06:14;2.13;;;1.92;;
27495;SDS011;14929;51.336;9.416;2023-07-16T11:08:42;3.05;;;2.22;;
27495;SDS011;14929;51.336;9.416;2023-07-16T11:11:10;2.10;;;2.00;;
27495;SDS011;14929;51.336;9.416;2023-07-16T11:13:37;2.33;;;1.98;;
27495;SDS011;14929;51.336;9.416;2023-07-16T11:16:08;2.53;;;2.33;;
27495;SDS011;14929;51.336;9.416;2023-07-16T11:18:35;2.72;;;2.10;;
27495;SDS011;14929;51.336;9.416;2023-07-16T11:21:04;2.53;;;1.83;;
27495;SDS011;14929;51.336;9.416;2023-07-16T11:23:33;1.77;;;1.67;;
27495;SDS011;14929;51.336;9.416;2023-07-16T11:26:01;3.00;;;2.08;;
27495;SDS011;14929;51.336;9.416;2023-07-16T11:28:35;2.20;;;2.10;;
27495;SDS011;14929;51.336;9.416;2023-07-16T11:31:09;2.05;;;1.85;;
27495;SDS011;14929;51.336;9.416;2023-07-16T11:33:38;2.40;;;1.90;;
27495;SDS011;14929;51.336;9.416;2023-07-16T11:36:11;2.17;;;1.98;;
27495;SDS011;14929;51.336;9.416;2023-07-16T11:38:38;2.20;;;1.80;;
27495;SDS011;14929;51.336;9.416;2023-07-16T11:41:06;1.95;;;1.85;;
27495;SDS011;14929;51.336;9.416;2023-07-16T11:43:34;3.45;;;1.85;;
27495;SDS011;14929;51.336;9.416;2023-07-16T11:46:01;2.40;;;2.20;;
27495;SDS011;14929;51.336;9.416;2023-07-16T11:48:29;2.42;;;1.73;;
27495;SDS011;14929;51.336;9.416;2023-07-16T11:50:56;2.40;;;2.20;;
27495;SDS011;14929;51.336;9.416;2023-07-16T11:53:25;2.42;;;1.85;;
27495;SDS011;14929;51.336;9.416;2023-07-16T11:55:53;2.42;;;1.73;;
27495;SDS011;14929;51.336;9.416;2023-07-16T11:58:20;2.72;;;2.42;;
27495;SDS011;14929;51.336;9.416;2023-07-16T12:00:48;1.77;;;1.67;;
27495;SDS011;14929;51.336;9.416;2023-07-16T12:03:16;1.90;;;1.80;;
27495;SDS011;14929;51.336;9.416;2023-07-16T12:05:43;2.03;;;1.85;;
27495;SDS011;14929;51.336;9.416;2023-07-16T12:08:11;2.42;;;2.22;;
27495;SDS011;14929;51.336;9.416;2023-07-16T12:10:41;2.53;;;2.33;;
27495;SDS011;14929;51.336;9.416;2023-07-16T12:13:09;2.13;;;1.70;;
27495;SDS011;14929;51.336;9.416;2023-07-16T12:15:36;1.92;;;1.83;;
27495;SDS011;14929;51.336;9.416;2023-07-16T12:18:04;2.50;;;2.30;;
27495;SDS011;14929;51.336;9.416;2023-07-16T12:20:31;2.65;;;1.95;;
27495;SDS011;14929;51.336;9.416;2023-07-16T12:23:01;2.05;;;1.95;;
27495;SDS011;14929;51.336;9.416;2023-07-16T12:25:29;3.25;;;2.35;;
27495;SDS011;14929;51.336;9.416;2023-07-16T12:27:58;2.67;;;2.00;;
27495;SDS011;14929;51.336;9.416;2023-07-16T12:30:27;2.38;;;1.90;;
27495;SDS011;14929;51.336;9.416;2023-07-16T12:32:55;4.07;;;2.63;;
27495;SDS011;14929;51.336;9.416;2023-07-16T12:35:22;2.67;;;2.33;;
27495;SDS011;14929;51.336;9.416;2023-07-16T12:37:50;3.47;;;2.63;;
27495;SDS011;14929;51.336;9.416;2023-07-16T12:40:17;2.50;;;2.30;;
27495;SDS011;14929;51.336;9.416;2023-07-16T12:42:44;2.67;;;2.47;;
27495;SDS011;14929;51.336;9.416;2023-07-16T12:45:13;2.15;;;2.05;;
27495;SDS011;14929;51.336;9.416;2023-07-16T12:47:41;3.13;;;2.00;;
27495;SDS011;14929;51.336;9.416;2023-07-16T12:50:08;3.55;;;2.33;;
27495;SDS011;14929;51.336;9.416;2023-07-16T12:52:36;2.08;;;1.90;;
27495;SDS011;14929;51.336;9.416;2023-07-16T12:55:04;2.88;;;2.60;;
27495;SDS011;14929;51.336;9.416;2023-07-16T12:57:32;3.17;;;2.60;;
27495;SDS011;14929;51.336;9.416;2023-07-16T12:59:59;3.50;;;2.45;;
27495;SDS011;14929;51.336;9.416;2023-07-16T13:02:31;3.78;;;2.90;;
27495;SDS011;14929;51.336;9.416;2023-07-16T13:04:59;2.17;;;1.98;;
27495;SDS011;14929;51.336;9.416;2023-07-16T13:07:26;3.13;;;2.63;;
27495;SDS011;14929;51.336;9.416;2023-07-16T13:09:54;2.60;;;2.25;;
27495;SDS011;14929;51.336;9.416;2023-07-16T13:12:21;2.88;;;2.47;;
27495;SDS011;14929;51.336;9.416;2023-07-16T13:14:49;2.35;;;2.15;;
27495;SDS011;14929;51.336;9.416;2023-07-16T13:17:16;2.60;;;2.40;;
27495;SDS011;14929;51.336;9.416;2023-07-16T13:19:46;2.30;;;2.10;;
27495;SDS011;14929;51.336;9.416;2023-07-16T13:22:13;1.80;;;1.70;;
27495;SDS011;14929;51.336;9.416;2023-07-16T13:24:40;1.73;;;1.63;;
27495;SDS011;14929;51.336;9.416;2023-07-16T13:27:09;2.75;;;2.50;;
27495;SDS011;14929;51.336;9.416;2023-07-16T13:29:45;3.40;;;3.10;;
27495;SDS011;14929;51.336;9.416;2023-07-16T13:32:12;2.13;;;2.03;;
27495;SDS011;14929;51.336;9.416;2023-07-16T13:34:40;2.40;;;2.20;;
27495;SDS011;14929;51.336;9.416;2023-07-16T13:37:09;2.25;;;2.15;;
27495;SDS011;14929;51.336;9.416;2023-07-16T13:39:36;3.10;;;2.60;;
27495;SDS011;14929;51.336;9.416;2023-07-16T13:42:04;2.40;;;2.20;;
27495;SDS011;14929;51.336;9.416;2023-07-16T13:44:32;2.67;;;2.47;;
27495;SDS011;14929;51.336;9.416;2023-07-16T13:46:59;2.95;;;2.75;;
27495;SDS011;14929;51.336;9.416;2023-07-16T13:49:27;2.60;;;2.42;;
27495;SDS011;14929;51.336;9.416;2023-07-16T13:51:55;2.70;;;2.50;;
27495;SDS011;14929;51.336;9.416;2023-07-16T13:54:24;2.70;;;2.50;;
27495;SDS011;14929;51.336;9.416;2023-07-16T13:56:51;3.15;;;2.67;;
27495;SDS011;14929;51.336;9.416;2023-07-16T13:59:19;2.95;;;2.58;;
27495;SDS011;14929;51.336;9.416;2023-07-16T14:01:46;2.90;;;2.22;;
27495;SDS011;14929;51.336;9.416;2023-07-16T14:04:14;3.05;;;2.85;;
27495;SDS011;14929;51.336;9.416;2023-07-16T14:06:41;5.22;;;3.15;;
27495;SDS011;14929;51.336;9.416;2023-07-16T14:09:09;2.45;;;2.20;;
27495;SDS011;14929;51.336;9.416;2023-07-16T14:11:37;2.80;;;2.47;;
27495;SDS011;14929;51.336;9.416;2023-07-16T14:14:05;2.47;;;2.28;;
27495;SDS011;14929;51.336;9.416;2023-07-16T14:16:32;2.80;;;2.60;;
27495;SDS011;14929;51.336;9.416;2023-07-16T14:19:00;2.85;;;2.65;;
27495;SDS011;14929;51.336;9.416;2023-07-16T14:21:27;3.95;;;2.92;;
27495;SDS011;14929;51.336;9.416;2023-07-16T14:23:55;2.58;;;2.38;;
27495;SDS011;14929;51.336;9.416;2023-07-16T14:26:23;2.83;;;2.63;;
27495;SDS011;14929;51.336;9.416;2023-07-16T14:28:52;2.58;;;2.38;;
27495;SDS011;14929;51.336;9.416;2023-07-16T14:31:20;2.95;;;2.65;;
27495;SDS011;14929;51.336;9.416;2023-07-16T14:33:47;2.55;;;2.25;;
27495;SDS011;14929;51.336;9.416;2023-07-16T14:36:15;3.05;;;2.75;;
27495;SDS011;14929;51.336;9.416;2023-07-16T14:38:42;2.90;;;2.70;;
27495;SDS011;14929;51.336;9.416;2023-07-16T14:41:10;2.53;;;2.33;;
27495;SDS011;14929;51.336;9.416;2023-07-16T14:43:37;3.00;;;2.42;;
27495;SDS011;14929;51.336;9.416;2023-07-16T14:46:06;2.22;;;2.08;;
27495;SDS011;14929;51.336;9.416;2023-07-16T14:48:40;2.97;;;2.78;;
27495;SDS011;14929;51.336;9.416;2023-07-16T14:51:09;2.38;;;2.25;;
27495;SDS011;14929;51.336;9.416;2023-07-16T14:53:37;3.22;;;2.47;;
27495;SDS011;14929;51.336;9.416;2023-07-16T14:56:04;2.88;;;1.92;;